1P1

Plymouth Municipal Airport

Plymouth, New Hampshire, USA
METAR K1P1 221455Z AUTO 30012G19KT 10SM CLR 15/08 A3011 RMK AO2 T01500075
Observed Flight Rules
Sep-22 @ 14:55 UTC (25 minutes ago) Visual Flight Rules
Wind Visibility Clouds
300° at 12 knots
 Gusting to 19 knots
10 miles
Temperatures Readings
Current 15°C / 59°F
Dewpoint 8°C / 46°F
Humidity 63%
Altimeter 30.11" Hg
Pressure 1020 hPa
Elevation 154
METAR K1P1 221455Z AUTO 30012G19KT 10SM CLR 15/08 A3011 RMK AO2 T01500075
Observed Flight Rules
Sep-22 @ 14:55 UTC
(25 minutes ago)
VFR
Wind Visibility
300° at 12 knots
 Gusting to 19 knots
10 miles
Clouds
Temperature Dewpoint
15°C / 59°F 8°C / 46°F
Humidity Altimeter Pressure
63% 30.11" Hg 1020 hPa